createdAt,value
2023-02-05T00:02:16.379Z,11.40
2023-02-05T00:04:44.726Z,12.00
2023-02-05T00:07:13.177Z,10.90
2023-02-05T00:09:41.247Z,11.30
2023-02-05T00:12:09.386Z,10.90
2023-02-05T00:14:38.016Z,11.80
2023-02-05T00:17:09.429Z,10.50
2023-02-05T00:19:38.447Z,11.70
2023-02-05T00:22:06.768Z,10.90
2023-02-05T00:24:35.263Z,10.50
2023-02-05T00:27:04.240Z,11.40
2023-02-05T00:29:32.396Z,11.40
2023-02-05T00:32:01.810Z,11.50
2023-02-05T00:34:30.656Z,11.80
2023-02-05T00:36:59.800Z,11.80
2023-02-05T00:39:28.112Z,12.40
2023-02-05T00:41:56.662Z,11.70
2023-02-05T00:44:26.025Z,11.40
2023-02-05T00:46:54.178Z,11.00
2023-02-05T00:49:23.624Z,10.90
2023-02-05T00:51:52.596Z,11.90
2023-02-05T00:54:21.396Z,11.90
2023-02-05T00:56:49.627Z,12.30
2023-02-05T00:59:18.222Z,12.50
2023-02-05T01:01:46.359Z,13.50
2023-02-05T01:04:15.068Z,12.80
2023-02-05T01:06:43.361Z,12.10
2023-02-05T01:09:11.710Z,11.50
2023-02-05T01:11:40.554Z,11.10
2023-02-05T01:14:10.133Z,11.00
2023-02-05T01:16:38.506Z,11.40
2023-02-05T01:19:07.390Z,12.10
2023-02-05T01:21:36.582Z,12.40
2023-02-05T01:24:05.074Z,11.50
2023-02-05T01:26:33.934Z,13.20
2023-02-05T01:29:02.421Z,11.90
2023-02-05T01:31:30.834Z,12.00
2023-02-05T01:33:59.593Z,12.30
2023-02-05T01:36:28.974Z,12.80
2023-02-05T01:38:57.236Z,11.80
2023-02-05T01:41:25.637Z,11.40
2023-02-05T01:44:12.112Z,12.60
2023-02-05T01:46:43.382Z,12.80
2023-02-05T01:49:19.685Z,12.50
2023-02-05T01:51:48.542Z,12.30
2023-02-05T01:54:17.147Z,12.80
2023-02-05T01:57:00.025Z,13.50
2023-02-05T01:59:30.154Z,10.90
2023-02-05T02:01:59.345Z,14.10
2023-02-05T02:04:45.628Z,16.30
2023-02-05T02:07:14.928Z,17.20
2023-02-05T02:09:43.588Z,15.40
2023-02-05T02:12:13.140Z,14.80
2023-02-05T02:14:42.191Z,14.70
2023-02-05T02:17:10.507Z,16.30
2023-02-05T02:19:40.178Z,15.80
2023-02-05T02:22:13.565Z,16.30
2023-02-05T02:24:41.795Z,16.40
2023-02-05T02:27:27.950Z,14.20
2023-02-05T02:30:02.012Z,15.40
2023-02-05T02:35:01.795Z,15.50
2023-02-05T02:37:34.669Z,14.30
2023-02-05T02:40:16.307Z,13.50
2023-02-05T02:42:48.955Z,14.20
2023-02-05T02:45:17.089Z,14.50
2023-02-05T02:47:49.973Z,14.50
2023-02-05T02:50:23.162Z,14.50
2023-02-05T02:52:51.975Z,14.40
2023-02-05T02:55:20.414Z,14.50
2023-02-05T02:57:50.056Z,14.50
2023-02-05T03:00:20.763Z,14.10
2023-02-05T03:02:49.572Z,14.20
2023-02-05T03:05:18.823Z,14.30
2023-02-05T03:07:58.140Z,11.90
2023-02-05T03:10:29.965Z,12.40
2023-02-05T03:12:59.789Z,13.30
2023-02-05T03:15:29.308Z,12.00
2023-02-05T03:17:58.351Z,12.70
2023-02-05T03:20:28.618Z,11.90
2023-02-05T03:22:57.127Z,12.30
2023-02-05T03:25:25.610Z,11.40
2023-02-05T03:27:55.742Z,11.00
2023-02-05T03:30:26.613Z,11.40
2023-02-05T03:33:10.502Z,11.90
2023-02-05T03:35:56.404Z,11.20
2023-02-05T03:38:44.933Z,11.20
2023-02-05T03:41:45.722Z,11.00
2023-02-05T03:44:17.985Z,10.60
2023-02-05T03:46:53.377Z,12.40
2023-02-05T03:49:35.920Z,13.00
2023-02-05T03:52:05.119Z,13.90
2023-02-05T03:54:36.011Z,12.80
2023-02-05T03:57:06.207Z,14.00
2023-02-05T03:59:35.701Z,12.90
2023-02-05T04:02:05.010Z,12.40
2023-02-05T04:04:39.130Z,10.80
2023-02-05T04:07:08.317Z,10.70
2023-02-05T04:09:37.345Z,11.50
2023-02-05T04:12:06.593Z,10.10
2023-02-05T04:14:35.295Z,10.20
2023-02-05T04:17:04.550Z,9.90
2023-02-05T04:19:33.587Z,10.20
2023-02-05T04:22:02.869Z,9.20
2023-02-05T04:24:33.781Z,10.00
2023-02-05T04:27:01.985Z,10.10
2023-02-05T04:29:30.788Z,10.90
2023-02-05T04:32:00.293Z,11.90
2023-02-05T04:34:29.020Z,12.00
2023-02-05T04:36:58.291Z,12.70
2023-02-05T04:39:27.987Z,13.00
2023-02-05T04:41:56.589Z,11.90
2023-02-05T04:44:24.836Z,12.70
2023-02-05T04:46:53.478Z,11.40
2023-02-05T04:49:21.858Z,11.80
2023-02-05T04:51:50.136Z,10.10
2023-02-05T04:54:18.748Z,11.00
2023-02-05T04:56:47.067Z,14.80
2023-02-05T04:59:15.421Z,16.80
2023-02-05T05:01:43.986Z,17.80
2023-02-05T05:04:12.073Z,16.40
2023-02-05T05:06:41.209Z,16.20
2023-02-05T05:09:09.855Z,18.80
2023-02-05T05:11:39.204Z,23.60
2023-02-05T05:14:08.002Z,24.90
2023-02-05T05:16:36.330Z,24.30
2023-02-05T05:19:04.519Z,24.30
2023-02-05T05:21:32.816Z,25.20
2023-02-05T05:24:01.609Z,26.50
2023-02-05T05:26:30.630Z,24.90
2023-02-05T05:28:59.335Z,22.90
2023-02-05T05:31:27.782Z,21.10
2023-02-05T05:33:55.886Z,22.90
2023-02-05T05:36:24.929Z,20.90
2023-02-05T05:38:53.298Z,20.80
2023-02-05T05:41:43.977Z,21.40
2023-02-05T05:44:12.186Z,19.80
2023-02-05T05:46:41.386Z,20.40
2023-02-05T05:49:09.500Z,22.50
2023-02-05T05:51:37.952Z,20.40
2023-02-05T05:54:06.462Z,21.20
2023-02-05T05:56:35.953Z,20.80
2023-02-05T05:59:04.511Z,20.20
2023-02-05T06:01:32.804Z,18.10
2023-02-05T06:04:03.647Z,17.10
2023-02-05T06:06:32.505Z,14.00
2023-02-05T06:09:01.040Z,13.80
2023-02-05T06:11:31.652Z,14.20
2023-02-05T06:14:00.295Z,13.70
2023-02-05T06:16:28.562Z,13.80
2023-02-05T06:18:59.187Z,14.40
2023-02-05T06:21:27.481Z,15.00
2023-02-05T06:23:57.409Z,12.10
2023-02-05T06:26:25.896Z,13.10
2023-02-05T06:28:57.296Z,15.90
2023-02-05T06:31:25.659Z,22.70
2023-02-05T06:33:55.629Z,12.20
2023-02-05T06:36:24.117Z,12.00
2023-02-05T06:38:52.510Z,10.90
2023-02-05T06:41:20.773Z,13.70
2023-02-05T06:43:48.926Z,13.20
2023-02-05T06:46:17.177Z,13.70
2023-02-05T06:48:45.297Z,13.40
2023-02-05T06:51:14.329Z,15.00
2023-02-05T06:53:43.891Z,13.60
2023-02-05T06:56:12.366Z,18.20
2023-02-05T06:58:41.170Z,15.00
2023-02-05T07:01:10.014Z,13.20
2023-02-05T07:03:38.162Z,12.20
2023-02-05T07:06:06.630Z,14.10
2023-02-05T07:08:34.907Z,13.50
2023-02-05T07:11:03.530Z,10.30
2023-02-05T07:13:32.071Z,12.20
2023-02-05T07:16:02.752Z,12.10
2023-02-05T07:18:32.343Z,13.80
2023-02-05T07:21:00.770Z,13.00
2023-02-05T07:23:29.079Z,13.80
2023-02-05T07:25:57.758Z,12.30
2023-02-05T07:28:26.110Z,11.70
2023-02-05T07:30:55.621Z,12.70
2023-02-05T07:33:24.397Z,13.10
2023-02-05T07:35:54.793Z,13.70
2023-02-05T07:38:25.090Z,12.20
2023-02-05T07:40:53.422Z,12.20
2023-02-05T07:43:21.963Z,11.40
2023-02-05T07:45:59.929Z,11.80
2023-02-05T07:48:28.040Z,12.20
2023-02-05T07:50:56.447Z,10.90
2023-02-05T07:53:24.729Z,11.60
2023-02-05T07:55:52.887Z,10.80
2023-02-05T07:58:21.293Z,10.50
2023-02-05T08:00:49.716Z,11.30
2023-02-05T08:03:18.104Z,10.50
2023-02-05T08:05:46.302Z,12.10
2023-02-05T08:08:14.747Z,10.50
2023-02-05T08:10:42.987Z,11.40
2023-02-05T08:13:14.610Z,11.00
2023-02-05T08:15:42.980Z,10.90
2023-02-05T08:18:11.161Z,10.30
2023-02-05T08:20:39.524Z,11.60
2023-02-05T08:23:08.340Z,10.70
2023-02-05T08:25:37.134Z,10.10
2023-02-05T08:28:06.032Z,10.40
2023-02-05T08:30:34.365Z,10.60
2023-02-05T08:33:03.335Z,9.80
2023-02-05T08:35:32.888Z,9.90
2023-02-05T08:38:01.386Z,10.00
2023-02-05T08:40:30.057Z,10.50
2023-02-05T08:43:00.458Z,9.90
2023-02-05T08:45:28.994Z,9.70
2023-02-05T08:47:57.623Z,10.50
2023-02-05T08:50:25.864Z,9.70
2023-02-05T08:52:54.302Z,10.00
2023-02-05T08:55:22.549Z,9.90
2023-02-05T08:57:50.859Z,10.50
2023-02-05T09:00:19.995Z,10.30
2023-02-05T09:02:48.189Z,9.30
2023-02-05T09:05:17.328Z,9.90
2023-02-05T09:07:45.736Z,10.40
2023-02-05T09:10:14.149Z,10.20
2023-02-05T09:12:42.907Z,11.00
2023-02-05T09:15:11.059Z,11.00
2023-02-05T09:17:39.497Z,10.00
2023-02-05T09:20:07.901Z,9.90
2023-02-05T09:22:38.102Z,9.60
2023-02-05T09:25:06.830Z,9.80
2023-02-05T09:27:35.308Z,11.10
2023-02-05T09:30:03.971Z,10.50
2023-02-05T09:32:32.360Z,9.80
2023-02-05T09:35:00.560Z,9.80
2023-02-05T09:37:28.719Z,10.50
2023-02-05T09:42:47.770Z,9.20
2023-02-05T09:45:21.826Z,9.90
2023-02-05T09:47:50.066Z,10.30
2023-02-05T09:50:21.186Z,9.90
2023-02-05T09:52:51.231Z,9.10
2023-02-05T09:55:26.214Z,9.80
2023-02-05T09:57:56.358Z,10.10
2023-02-05T10:00:25.258Z,11.10
2023-02-05T10:03:08.991Z,10.90
2023-02-05T10:05:43.124Z,9.60
2023-02-05T10:08:36.249Z,10.80
2023-02-05T10:11:04.668Z,10.90
2023-02-05T10:13:36.514Z,10.90
2023-02-05T10:16:21.044Z,10.00
2023-02-05T10:19:08.658Z,10.10
2023-02-05T10:21:52.993Z,9.80
2023-02-05T10:24:24.306Z,9.20
2023-02-05T10:26:54.057Z,9.00
2023-02-05T10:29:22.262Z,8.70
2023-02-05T10:32:02.138Z,9.90
2023-02-05T10:34:39.917Z,8.90
2023-02-05T10:37:21.167Z,9.50
2023-02-05T10:39:49.943Z,8.30
2023-02-05T10:42:21.976Z,7.60
2023-02-05T10:44:50.427Z,8.00
2023-02-05T10:47:20.895Z,7.70
2023-02-05T10:49:55.364Z,7.40
2023-02-05T10:52:24.517Z,7.50
2023-02-05T10:54:52.829Z,8.10
2023-02-05T10:57:21.545Z,8.40
2023-02-05T10:59:49.729Z,8.70
2023-02-05T11:02:18.056Z,10.10
2023-02-05T11:04:47.579Z,9.90
2023-02-05T11:07:35.899Z,9.20
2023-02-05T11:10:24.453Z,9.30
2023-02-05T11:13:01.921Z,9.70
2023-02-05T11:15:32.133Z,10.60
2023-02-05T11:18:01.911Z,10.20
2023-02-05T11:20:30.652Z,11.00
2023-02-05T11:23:16.153Z,10.20
2023-02-05T11:25:51.068Z,10.40
2023-02-05T11:28:24.702Z,10.50
2023-02-05T11:30:53.374Z,7.90
2023-02-05T11:33:21.917Z,11.70
2023-02-05T11:36:03.723Z,12.40
2023-02-05T11:38:39.858Z,11.90
2023-02-05T11:41:09.108Z,10.90
2023-02-05T11:43:51.481Z,10.40
2023-02-05T11:46:20.434Z,10.40
2023-02-05T11:48:56.873Z,11.50
2023-02-05T11:51:44.852Z,10.70
2023-02-05T11:54:17.037Z,11.20
2023-02-05T11:57:07.763Z,11.80
2023-02-05T12:01:29.381Z,11.90
2023-02-05T12:04:06.715Z,10.40
2023-02-05T12:06:42.853Z,10.90
2023-02-05T12:09:21.520Z,11.80
2023-02-05T12:12:06.848Z,10.20
2023-02-05T12:14:38.651Z,9.10
2023-02-05T12:17:07.289Z,8.70
2023-02-05T12:19:43.275Z,8.50
2023-02-05T12:22:14.383Z,7.50
2023-02-05T12:24:47.966Z,7.40
2023-02-05T12:27:35.276Z,7.20
2023-02-05T12:30:04.792Z,7.60
2023-02-05T12:32:38.832Z,7.50
2023-02-05T12:35:26.136Z,7.50
2023-02-05T12:38:01.115Z,7.60
2023-02-05T12:40:32.619Z,8.20
2023-02-05T12:43:11.028Z,8.90
2023-02-05T12:45:49.023Z,8.50
2023-02-05T12:48:24.377Z,9.80
2023-02-05T12:51:03.630Z,9.20
2023-02-05T12:53:37.245Z,9.30
2023-02-05T12:56:18.961Z,9.60
2023-02-05T12:58:50.856Z,9.30
2023-02-05T13:01:29.746Z,8.50
2023-02-05T13:04:01.099Z,9.20
2023-02-05T13:06:50.550Z,9.10
2023-02-05T13:09:20.469Z,12.60
2023-02-05T13:11:53.674Z,10.50
2023-02-05T13:14:23.253Z,7.10
2023-02-05T13:16:55.673Z,11.50
2023-02-05T13:19:34.402Z,10.40
2023-02-05T13:22:23.292Z,11.10
2023-02-05T13:25:14.989Z,12.20
2023-02-05T13:28:03.066Z,12.10
2023-02-05T13:30:34.178Z,11.70
2023-02-05T13:33:03.722Z,11.20
2023-02-05T13:35:52.373Z,11.90
2023-02-05T13:38:20.622Z,12.20
2023-02-05T13:40:51.977Z,12.00
2023-02-05T13:43:29.542Z,11.90
2023-02-05T13:46:17.351Z,11.80
2023-02-05T13:48:55.045Z,11.80
2023-02-05T13:51:43.250Z,12.10
2023-02-05T13:54:11.770Z,12.40
2023-02-05T13:56:43.199Z,12.20
2023-02-05T13:59:19.041Z,11.00
2023-02-05T14:01:51.910Z,11.50
2023-02-05T14:04:20.347Z,12.00
2023-02-05T14:07:11.613Z,11.50
2023-02-05T14:09:43.949Z,11.70
2023-02-05T14:12:13.258Z,12.50
2023-02-05T14:14:42.085Z,11.30
2023-02-05T14:17:28.992Z,11.10
2023-02-05T14:19:58.552Z,10.70
2023-02-05T14:22:42.728Z,11.70
2023-02-05T14:25:29.760Z,11.30
2023-02-05T14:28:00.109Z,10.70
2023-02-05T14:30:28.322Z,11.40
2023-02-05T14:32:57.779Z,11.10
2023-02-05T14:35:28.864Z,10.60
2023-02-05T14:37:58.939Z,11.20
2023-02-05T14:40:29.164Z,10.40
2023-02-05T14:43:09.873Z,9.90
2023-02-05T14:45:45.751Z,9.90
2023-02-05T14:48:33.960Z,10.90
2023-02-05T14:51:07.969Z,10.80
2023-02-05T14:53:36.613Z,11.50
2023-02-05T14:56:04.844Z,12.30
2023-02-05T14:58:39.566Z,10.50
2023-02-05T15:01:26.592Z,11.30
2023-02-05T15:03:55.113Z,12.10
2023-02-05T15:06:24.112Z,11.00
2023-02-05T15:09:05.817Z,11.30
2023-02-05T15:11:44.432Z,11.00
2023-02-05T15:14:36.147Z,11.00
2023-02-05T15:17:10.904Z,10.10
2023-02-05T15:19:42.684Z,10.60
2023-02-05T15:22:30.402Z,12.00
2023-02-05T15:24:58.654Z,11.80
2023-02-05T15:27:47.368Z,11.30
2023-02-05T15:30:17.557Z,10.90
2023-02-05T15:33:05.815Z,10.40
2023-02-05T15:35:37.788Z,10.80
2023-02-05T15:38:12.309Z,11.50
2023-02-05T15:40:40.621Z,11.80
2023-02-05T15:43:16.097Z,11.90
2023-02-05T15:45:47.418Z,12.00
2023-02-05T15:48:19.233Z,11.80
2023-02-05T15:50:51.655Z,12.30
2023-02-05T15:53:26.265Z,12.20
2023-02-05T15:55:54.706Z,10.50
2023-02-05T15:58:23.742Z,11.40
2023-02-05T16:00:53.741Z,11.70
2023-02-05T16:03:25.158Z,11.80
2023-02-05T16:05:53.492Z,11.10
2023-02-05T16:08:23.590Z,10.60
2023-02-05T16:10:57.931Z,10.60
2023-02-05T16:13:26.915Z,10.10
2023-02-05T16:15:59.024Z,10.40
2023-02-05T16:18:36.304Z,10.30
2023-02-05T16:21:06.384Z,10.80
2023-02-05T16:23:37.713Z,11.20
2023-02-05T16:26:07.618Z,9.90
2023-02-05T16:28:47.095Z,9.20
2023-02-05T16:31:17.235Z,10.00
2023-02-05T16:33:48.445Z,9.70
2023-02-05T16:36:23.256Z,10.40
2023-02-05T16:38:56.010Z,11.30
2023-02-05T16:41:25.712Z,11.70
2023-02-05T16:43:54.819Z,11.50
2023-02-05T16:46:24.813Z,11.80
2023-02-05T16:48:59.050Z,10.70
2023-02-05T16:51:27.318Z,10.40
2023-02-05T16:53:55.984Z,10.90
2023-02-05T16:56:34.783Z,11.20
2023-02-05T16:59:03.359Z,10.30
2023-02-05T17:01:31.697Z,10.70
2023-02-05T17:03:59.956Z,10.20
2023-02-05T17:06:32.865Z,9.90
2023-02-05T17:09:01.346Z,9.70
2023-02-05T17:11:40.203Z,10.60
2023-02-05T17:14:12.559Z,10.60
2023-02-05T17:16:42.559Z,10.00
2023-02-05T17:19:24.715Z,10.60
2023-02-05T17:22:27.718Z,10.10
2023-02-05T17:24:56.030Z,11.50
2023-02-05T17:27:35.872Z,12.00
2023-02-05T17:30:05.801Z,11.40
2023-02-05T17:32:34.687Z,10.90
2023-02-05T17:35:04.514Z,10.30
2023-02-05T17:37:34.525Z,10.70
2023-02-05T17:40:02.860Z,10.60
2023-02-05T17:42:31.520Z,11.20
2023-02-05T17:45:01.364Z,10.80
2023-02-05T17:47:30.164Z,10.40
2023-02-05T17:49:59.009Z,11.00
2023-02-05T17:52:27.998Z,12.30
2023-02-05T17:54:56.864Z,10.70
2023-02-05T17:57:26.545Z,12.00
2023-02-05T17:59:57.101Z,12.20
2023-02-05T18:02:25.719Z,11.80
2023-02-05T18:04:54.997Z,11.20
2023-02-05T18:07:31.009Z,10.70
2023-02-05T18:10:00.397Z,11.30
2023-02-05T18:12:30.479Z,11.20
2023-02-05T18:14:59.039Z,12.00
2023-02-05T18:17:28.233Z,11.00
2023-02-05T18:19:56.976Z,11.00
2023-02-05T18:22:25.928Z,10.80
2023-02-05T18:24:56.869Z,12.70
2023-02-05T18:27:26.323Z,11.30
2023-02-05T18:29:55.006Z,11.60
2023-02-05T18:32:23.225Z,11.10
2023-02-05T18:34:53.683Z,11.20
2023-02-05T18:37:22.600Z,10.90
2023-02-05T18:39:51.093Z,11.30
2023-02-05T18:42:20.081Z,10.90
2023-02-05T18:44:48.791Z,10.90
2023-02-05T18:47:17.022Z,11.00
2023-02-05T18:49:45.672Z,10.30
2023-02-05T18:52:15.696Z,11.50
2023-02-05T18:54:46.131Z,11.10
2023-02-05T18:57:15.571Z,11.20
2023-02-05T18:59:45.456Z,11.40
2023-02-05T19:02:14.619Z,10.70
2023-02-05T19:04:44.531Z,11.40
2023-02-05T19:07:12.796Z,11.00
2023-02-05T19:09:41.073Z,11.70
2023-02-05T19:12:09.624Z,11.90
2023-02-05T19:14:38.218Z,12.50
2023-02-05T19:17:07.176Z,12.10
2023-02-05T19:19:36.262Z,12.10
2023-02-05T19:22:06.625Z,12.20
2023-02-05T19:24:36.262Z,11.90
2023-02-05T19:27:04.825Z,10.80
2023-02-05T19:29:38.443Z,12.10
2023-02-05T19:32:07.722Z,12.30
2023-02-05T19:34:38.599Z,11.80
2023-02-05T19:37:07.610Z,11.50
2023-02-05T19:39:36.534Z,11.40
2023-02-05T19:42:04.906Z,12.30
2023-02-05T19:44:34.578Z,11.70
2023-02-05T19:47:03.141Z,10.30
2023-02-05T19:49:32.502Z,10.90
2023-02-05T19:52:01.534Z,11.10
2023-02-05T19:54:30.935Z,12.10
2023-02-05T19:57:00.123Z,11.20
2023-02-05T19:59:28.459Z,11.50
2023-02-05T20:01:57.705Z,12.20
2023-02-05T20:04:26.408Z,11.60
2023-02-05T20:06:56.390Z,12.20
2023-02-05T20:09:25.173Z,11.30
2023-02-05T20:11:54.629Z,12.50
2023-02-05T20:14:23.395Z,12.20
2023-02-05T20:16:52.392Z,12.60
2023-02-05T20:19:20.872Z,12.10
2023-02-05T20:21:49.566Z,12.00
2023-02-05T20:24:18.621Z,11.60
2023-02-05T20:26:48.639Z,12.10
2023-02-05T20:29:35.926Z,12.70
2023-02-05T20:32:04.847Z,12.20
2023-02-05T20:34:36.380Z,11.40
2023-02-05T20:37:06.253Z,12.30
2023-02-05T20:39:35.487Z,13.30
2023-02-05T20:42:04.129Z,12.20
2023-02-05T20:44:33.959Z,11.20
2023-02-05T20:47:02.664Z,12.60
2023-02-05T20:49:31.269Z,13.40
2023-02-05T20:51:59.621Z,11.60
2023-02-05T20:54:27.866Z,11.90
2023-02-05T20:56:59.437Z,11.90
2023-02-05T20:59:34.711Z,12.30
2023-02-05T21:02:03.439Z,13.20
2023-02-05T21:04:32.797Z,13.00
2023-02-05T21:07:02.307Z,12.80
2023-02-05T21:09:32.108Z,12.50
2023-02-05T21:12:00.280Z,11.20
2023-02-05T21:14:30.445Z,11.70
2023-02-05T21:16:58.747Z,13.70
2023-02-05T21:19:28.419Z,12.10
2023-02-05T21:21:57.135Z,13.00
2023-02-05T21:24:25.388Z,12.40
2023-02-05T21:26:53.525Z,12.80
2023-02-05T21:29:21.637Z,13.70
2023-02-05T21:31:50.733Z,14.70
2023-02-05T21:34:19.726Z,13.60
2023-02-05T21:36:48.566Z,12.40
2023-02-05T21:39:17.151Z,12.20
2023-02-05T21:41:46.349Z,11.50
2023-02-05T21:44:14.637Z,12.40
2023-02-05T21:46:44.601Z,13.10
2023-02-05T21:49:12.950Z,12.80
2023-02-05T21:51:42.547Z,12.60
2023-02-05T21:54:10.804Z,13.20
2023-02-05T21:56:40.024Z,13.70
2023-02-05T21:59:09.026Z,12.90
2023-02-05T22:01:38.155Z,11.80
2023-02-05T22:04:11.489Z,13.10
2023-02-05T22:06:40.514Z,12.10
2023-02-05T22:09:12.024Z,11.10
2023-02-05T22:11:40.802Z,11.40
2023-02-05T22:14:09.701Z,11.60
2023-02-05T22:16:38.108Z,12.30
2023-02-05T22:19:07.626Z,11.40
2023-02-05T22:21:37.032Z,10.90
2023-02-05T22:24:05.468Z,11.90
2023-02-05T22:26:35.689Z,12.20
2023-02-05T22:29:04.685Z,12.00
2023-02-05T22:31:33.746Z,11.10
2023-02-05T22:34:01.998Z,11.20
2023-02-05T22:36:30.793Z,9.90
2023-02-05T22:38:59.235Z,10.40
2023-02-05T22:41:31.555Z,10.70
2023-02-05T22:44:00.712Z,9.50
2023-02-05T22:46:30.266Z,9.80
2023-02-05T22:48:59.048Z,10.10
2023-02-05T22:51:32.903Z,10.00
2023-02-05T22:54:01.195Z,10.40
2023-02-05T22:56:30.181Z,10.40
2023-02-05T22:59:02.065Z,9.30
2023-02-05T23:01:33.303Z,10.80
2023-02-05T23:04:02.097Z,9.00
2023-02-05T23:06:31.525Z,9.50
2023-02-05T23:09:01.130Z,9.60
2023-02-05T23:11:30.811Z,8.80
2023-02-05T23:14:00.162Z,9.70
2023-02-05T23:16:29.915Z,10.00
2023-02-05T23:19:01.776Z,10.50
2023-02-05T23:21:31.620Z,9.50
2023-02-05T23:24:00.058Z,9.20
2023-02-05T23:26:29.242Z,8.00
2023-02-05T23:28:57.501Z,9.20
2023-02-05T23:31:26.002Z,9.60
2023-02-05T23:33:54.304Z,9.50
2023-02-05T23:36:22.651Z,9.70
2023-02-05T23:38:51.153Z,9.10
2023-02-05T23:41:35.878Z,11.30
2023-02-05T23:44:08.070Z,10.90
2023-02-05T23:46:37.473Z,9.60
2023-02-05T23:49:05.885Z,9.40
2023-02-05T23:51:34.601Z,9.40
2023-02-05T23:54:02.684Z,9.80
2023-02-05T23:56:31.337Z,9.80
2023-02-05T23:58:59.723Z,10.30
